Terminal Aerodrome Forecast
Issued by NWS

Home | Current Version | Previous Version | Text Only | Print | Product List | Glossary On
Versions: 1 2 3 4 5 6 7 8 9 10 11 12 13 14 15 16 17 18 19 20 21 22 23 24 25 26 27
000
FTAK31 PANC 301745
TAFADL
TAF
PADL 301745Z 3018/3118 06006KT P6SM VCSH OVC100
     FM302100 15007KT 5SM -SHRA BR FEW015 BKN025 OVC040
     FM310300 21011KT P6SM SCT025 BKN040
     FM311100 21011KT P6SM BKN018 OVC025=

USA.gov is the U.S. government's official web portal to all federal, state and local government web resources and services.